Latest  Newer  Older  Last 2 hours animation  Current image  Latest image 
Rain/snow radar  Infrared sat images 
Real-time lightning map

All time is UTC (add 2 hours to UTC in wintertime, 3 hours to UTC in DST for Latvia local time)

2018/12/12 17:50 EVRA 121750Z 03009KT 9999 OVC023 00/M03 Q1026 R36/290195 NOSIG
2018/12/12 17:50 EVLA 121750Z AUTO 03006KT 9999 FEW019/// OVC022/// 01/M00 Q1027
2018/12/12 17:50 EVVA 121750Z AUTO 03005KT 9999 OVC027 01/M01 Q1028
2018/12/12 17:50 EYKA 121750Z 01007KT 340V040 9999 OVC006 00/M00 Q1023
2018/12/12 17:50 EYPA 121750Z 04006KT 9999 OVC022 01/M01 Q1027 R01/1///95
2018/12/12 17:50 EYSA 121750Z 01008KT 9999 SCT009 OVC013 M01/M01 Q1025 R32R/29//95 GRN TEMPO OVC015 WHT
2018/12/12 17:50 EYVI 121750Z 02014KT 9999 OVC004 M00/M00 Q1021 R01/2///95 NOSIG
2018/12/12 15:50 EEKA 121550Z 01014KT 9999 SCT023 OVC030 02/M01 Q1029
2018/12/12 17:50 EEKE 121750Z AUTO 01007KT 4200NDV -SN SCT016 BKN025 OVC031 00/M01 Q1029
2018/12/12 13:50 EEPU 121350Z 01008KT 9999 FEW011 OVC036 00/M02 Q1027
2018/12/12 17:50 EETN 121750Z 06011KT 030V090 9999 -SN OVC020 00/M04 Q1029 R08/420295 NOSIG
2018/12/12 17:50 EETU 121750Z AUTO 02007KT 340V060 9999 BKN013/// OVC026/// M02/M05 Q1027
   RIGA AIRPORT     EVRA               56 55N  023 58E   10   X     T          6 LV
   LIEPAJA INTL     EVLA        26406  56 31N  021 06E    4   X                8 LV
   VENTPILS         EVVA               57 21N  021 33E    6   X                8 LV
   KAUNAS           EYKA               54 54N  023 55E   77   X     T          6 LT
   PALANGA INTL     EYPA               55 55N  021 03E   10   X                6 LT
   SIAULIAI INTL    EYSA               55 54N  023 24E  135   X     T          6 LT
   VILNIUS INTL     EYVI        26730  54 38N  025 17E  197   X     T          6 LT
   KARDLA           EEKA        26116  58 59N  022 50E    4   X                8 EE
   KURESSAARE       EEKE               58 14N  022 31E    4   X                8 EE
   PARNU            EEPU               58 25N  024 28E   14   X                8 EE
   TALLINN          EETN        26038  59 24N  024 49E   40   X     T          8 EE
   TARTU            EETU               58 19N  026 41E   67   X                8 EE

cloud coverage image from sat24.com and METAR data from weather.noaa.gov